Time;durP1;ratioP1;P1;durP2;ratioP2;P2;SDS_P1;SDS_P2;PMS_P1;PMS_P2;Temp;Humidity;BMP_temperature;BMP_pressure;BME280_temperature;BME280_humidity;BME280_pressure;Samples;Min_cycle;Max_cycle;Signal;HPM_P1;HPM_P2
2024/02/25 00:00:09;;;;;;;21.47;19.70;;;3.90;90.70;;;;;;5118814;28;20177;-86
2024/02/25 00:02:34;;;;;;;19.43;18.23;;;3.80;90.70;;;;;;5118935;28;20173;-85
2024/02/25 00:05:00;;;;;;;21.80;20.33;;;3.80;90.80;;;;;;5119013;28;20216;-86
2024/02/25 00:07:26;;;;;;;22.00;20.60;;;3.80;90.80;;;;;;5119688;28;20666;-85
2024/02/25 00:09:51;;;;;;;21.77;20.07;;;3.70;90.90;;;;;;5117617;28;20196;-86
2024/02/25 00:12:17;;;;;;;20.93;19.20;;;3.70;91.00;;;;;;5117259;28;20177;-86
2024/02/25 00:14:42;;;;;;;20.90;19.60;;;3.60;91.20;;;;;;5119173;28;20165;-86
2024/02/25 00:17:08;;;;;;;20.00;18.70;;;3.60;91.30;;;;;;5118963;28;20184;-85
2024/02/25 00:19:33;;;;;;;20.70;19.20;;;3.60;91.40;;;;;;5117810;28;20199;-85
2024/02/25 00:21:59;;;;;;;18.40;17.30;;;3.50;91.50;;;;;;5119449;28;20183;-85
2024/02/25 00:24:24;;;;;;;18.80;17.60;;;3.50;91.60;;;;;;5118197;28;20558;-86
2024/02/25 00:26:50;;;;;;;10.50;9.77;;;3.50;91.70;;;;;;5119141;28;20174;-85
2024/02/25 00:29:16;;;;;;;10.97;10.17;;;3.60;91.70;;;;;;5117650;28;20273;-85
2024/02/25 00:31:42;;;;;;;10.90;10.20;;;3.50;91.70;;;;;;5117385;28;20176;-85
2024/02/25 00:34:08;;;;;;;10.43;9.73;;;3.50;91.90;;;;;;5117957;28;20172;-86
2024/02/25 00:36:33;;;;;;;10.27;9.60;;;3.50;91.80;;;;;;5119361;28;20173;-85
2024/02/25 00:39:01;;;;;;;11.23;10.40;;;3.60;91.80;;;;;;5119429;28;20196;-86
2024/02/25 00:41:26;;;;;;;10.87;9.90;;;3.50;91.70;;;;;;5116891;28;20551;-87
2024/02/25 00:43:52;;;;;;;10.23;9.43;;;3.50;91.80;;;;;;5119363;28;20177;-86
2024/02/25 00:46:17;;;;;;;11.50;10.60;;;3.60;91.90;;;;;;5119179;28;20180;-85
2024/02/25 00:48:43;;;;;;;11.57;10.77;;;3.60;91.50;;;;;;5119067;28;20191;-87
2024/02/25 00:51:09;;;;;;;11.10;10.20;;;3.40;91.50;;;;;;5119672;28;20164;-85
2024/02/25 00:53:35;;;;;;;10.47;9.83;;;3.30;91.60;;;;;;5117795;28;20235;-85
2024/02/25 00:56:02;;;;;;;10.63;9.90;;;3.40;91.70;;;;;;5117393;28;20173;-87
2024/02/25 00:58:27;;;;;;;10.20;9.50;;;3.30;91.80;;;;;;5119155;28;20184;-86
2024/02/25 01:00:53;;;;;;;10.93;9.93;;;3.30;91.70;;;;;;5118575;28;20158;-86
2024/02/25 01:03:19;;;;;;;10.20;9.50;;;3.30;91.80;;;;;;5119514;28;20241;-87
2024/02/25 01:05:44;;;;;;;10.13;9.33;;;3.30;91.90;;;;;;5117321;28;20279;-87
2024/02/25 01:08:10;;;;;;;10.60;9.90;;;3.30;91.90;;;;;;5118193;28;20253;-86
2024/02/25 01:10:35;;;;;;;9.63;8.93;;;3.30;91.90;;;;;;5116041;28;20687;-85
2024/02/25 01:13:02;;;;;;;10.63;9.83;;;3.30;91.90;;;;;;5117855;28;20228;-85
2024/02/25 01:15:27;;;;;;;9.53;8.93;;;3.20;91.90;;;;;;5117441;27;20173;-87
2024/02/25 01:17:53;;;;;;;10.60;9.90;;;3.30;91.90;;;;;;5117602;28;20258;-86
2024/02/25 01:20:18;;;;;;;10.80;10.00;;;3.20;91.80;;;;;;5117464;28;20619;-85
2024/02/25 01:22:44;;;;;;;10.57;9.77;;;3.30;91.90;;;;;;5117358;28;20184;-86
2024/02/25 01:25:11;;;;;;;11.33;10.63;;;3.30;91.80;;;;;;5118340;28;20632;-85
2024/02/25 01:27:37;;;;;;;18.70;17.40;;;3.20;91.70;;;;;;5116029;28;20170;-85
2024/02/25 01:30:04;;;;;;;19.43;18.13;;;3.30;91.80;;;;;;5117025;28;20196;-85
2024/02/25 01:32:29;;;;;;;19.30;18.00;;;3.30;91.60;;;;;;5116960;28;20169;-87
2024/02/25 01:34:55;;;;;;;19.43;18.10;;;3.30;91.60;;;;;;5117414;28;20657;-85
2024/02/25 01:37:20;;;;;;;19.97;18.67;;;3.30;91.40;;;;;;5117989;28;20166;-86
2024/02/25 01:39:46;;;;;;;20.50;19.20;;;3.20;91.40;;;;;;5117762;28;20233;-86
2024/02/25 01:42:11;;;;;;;20.43;19.07;;;3.10;91.40;;;;;;5117520;28;20239;-85
2024/02/25 01:44:57;;;;;;;20.77;19.37;;;3.20;91.40;;;;;;5117833;28;20207;-85
2024/02/25 01:47:27;;;;;;;20.67;19.10;;;3.10;91.30;;;;;;5117446;28;20612;-86
2024/02/25 01:49:54;;;;;;;20.53;19.13;;;3.10;91.30;;;;;;5117322;28;20197;-85
2024/02/25 01:52:21;;;;;;;21.07;19.77;;;3.10;91.30;;;;;;5115847;28;20175;-87
2024/02/25 01:54:48;;;;;;;21.50;20.00;;;3.10;91.40;;;;;;5117559;28;20263;-86
2024/02/25 01:57:14;;;;;;;21.83;19.97;;;3.10;91.40;;;;;;5117917;28;20172;-86
2024/02/25 01:59:40;;;;;;;21.20;19.80;;;3.10;91.30;;;;;;5116952;28;20216;-86
2024/02/25 02:02:13;;;;;;;21.77;20.27;;;3.10;91.40;;;;;;5116273;28;20171;-85
2024/02/25 02:04:42;;;;;;;18.33;17.07;;;3.10;91.40;;;;;;5117660;28;20240;-86
2024/02/25 02:07:12;;;;;;;20.80;19.50;;;3.00;91.30;;;;;;5116329;28;20303;-85
2024/02/25 02:09:38;;;;;;;21.33;19.93;;;3.10;91.40;;;;;;5115713;28;20234;-85
2024/02/25 02:12:04;;;;;;;22.20;20.63;;;3.10;91.30;;;;;;5117595;28;20173;-86
2024/02/25 02:14:30;;;;;;;23.47;21.97;;;3.20;91.40;;;;;;5116889;28;20569;-87
2024/02/25 02:16:56;;;;;;;23.90;22.20;;;3.30;91.30;;;;;;5117251;28;20166;-85
2024/02/25 02:19:22;;;;;;;24.97;23.17;;;3.40;91.20;;;;;;5117049;28;20613;-87
2024/02/25 02:21:52;;;;;;;25.90;24.20;;;3.40;90.80;;;;;;5117971;28;20183;-86
2024/02/25 02:24:18;;;;;;;15.33;14.23;;;3.20;90.50;;;;;;5115976;28;20173;-85
2024/02/25 02:26:43;;;;;;;14.93;14.00;;;3.20;90.60;;;;;;5117940;28;20177;-87
2024/02/25 02:29:09;;;;;;;27.07;25.17;;;3.20;90.70;;;;;;5116068;28;20204;-87
2024/02/25 02:31:34;;;;;;;26.40;24.73;;;3.20;90.60;;;;;;5117732;28;20175;-87
2024/02/25 02:34:00;;;;;;;26.57;24.73;;;3.10;90.50;;;;;;5116134;28;20308;-85
2024/02/25 02:36:25;;;;;;;26.13;24.10;;;3.10;90.70;;;;;;5116078;28;20548;-85
2024/02/25 02:38:51;;;;;;;26.60;24.80;;;3.20;90.70;;;;;;5117780;28;20212;-86
2024/02/25 02:41:19;;;;;;;27.40;25.70;;;3.20;90.80;;;;;;5116347;28;20187;-86
2024/02/25 02:43:44;;;;;;;26.27;24.57;;;3.10;90.40;;;;;;5116129;28;20179;-85
2024/02/25 02:46:11;;;;;;;25.20;23.60;;;2.90;90.60;;;;;;5118108;28;20188;-87
2024/02/25 02:48:36;;;;;;;24.90;23.20;;;2.90;90.80;;;;;;5116878;28;20187;-85
2024/02/25 02:51:02;;;;;;;24.20;22.63;;;2.90;91.00;;;;;;5117673;28;20183;-86
2024/02/25 02:53:28;;;;;;;24.30;22.83;;;2.90;91.00;;;;;;5116150;28;20181;-87
2024/02/25 02:55:53;;;;;;;23.03;21.63;;;2.90;91.10;;;;;;5118073;28;20166;-86
2024/02/25 02:58:19;;;;;;;23.83;22.43;;;2.90;91.20;;;;;;5117719;28;20197;-86
2024/02/25 03:00:44;;;;;;;23.03;21.63;;;2.90;91.30;;;;;;5117729;28;20185;-86
2024/02/25 03:03:10;;;;;;;21.27;19.87;;;2.90;91.30;;;;;;5117836;28;20175;-87
2024/02/25 03:05:35;;;;;;;21.23;19.93;;;2.80;91.30;;;;;;5118164;28;20196;-86
2024/02/25 03:08:01;;;;;;;20.57;19.27;;;2.90;91.40;;;;;;5121386;28;20202;-85
2024/02/25 03:10:28;;;;;;;20.03;18.70;;;2.90;91.30;;;;;;5121608;28;20255;-86
2024/02/25 03:12:53;;;;;;;19.60;18.30;;;2.90;91.30;;;;;;5120296;28;20175;-86
2024/02/25 03:15:19;;;;;;;12.03;11.23;;;2.80;91.30;;;;;;5122387;28;20174;-86
2024/02/25 03:17:45;;;;;;;12.90;12.00;;;2.90;91.30;;;;;;5122311;28;20706;-87
2024/02/25 03:20:11;;;;;;;12.17;11.37;;;2.90;91.30;;;;;;5120329;28;20188;-87
2024/02/25 03:22:37;;;;;;;13.53;12.63;;;3.00;91.50;;;;;;5121497;28;20178;-87
2024/02/25 03:25:03;;;;;;;13.03;12.23;;;3.00;91.30;;;;;;5121923;28;20243;-86
2024/02/25 03:27:29;;;;;;;14.37;12.97;;;3.00;91.10;;;;;;5121566;28;20182;-86
2024/02/25 03:29:55;;;;;;;13.77;12.77;;;3.00;90.90;;;;;;5120963;28;20204;-87
2024/02/25 03:32:20;;;;;;;13.37;12.47;;;3.10;90.90;;;;;;5119731;28;20185;-87
2024/02/25 03:34:46;;;;;;;15.13;13.77;;;3.10;90.80;;;;;;5122168;28;20175;-87
2024/02/25 03:37:12;;;;;;;15.07;13.90;;;3.00;90.70;;;;;;5120384;28;20174;-87
2024/02/25 03:39:38;;;;;;;14.27;13.37;;;3.00;90.80;;;;;;5122002;28;20186;-87
2024/02/25 03:42:03;;;;;;;14.40;13.40;;;3.00;90.80;;;;;;5121823;28;20172;-87
2024/02/25 03:44:29;;;;;;;14.90;13.90;;;3.10;90.80;;;;;;5121759;28;20181;-87
2024/02/25 03:46:54;;;;;;;13.57;12.77;;;3.00;90.70;;;;;;5120588;28;20207;-86
2024/02/25 03:49:21;;;;;;;15.20;14.30;;;3.00;90.70;;;;;;5122130;28;20283;-87
2024/02/25 03:51:46;;;;;;;15.57;14.37;;;3.00;90.70;;;;;;5122479;28;20162;-87
2024/02/25 03:54:12;;;;;;;15.50;14.30;;;3.20;90.70;;;;;;5121062;28;20547;-87
2024/02/25 03:56:37;;;;;;;15.57;14.57;;;3.20;90.50;;;;;;5117463;28;20645;-85
2024/02/25 03:59:04;;;;;;;14.77;13.80;;;3.20;90.30;;;;;;5117564;28;20200;-85
2024/02/25 04:01:29;;;;;;;16.50;15.40;;;3.20;90.30;;;;;;5117997;28;20712;-85
2024/02/25 04:03:55;;;;;;;16.53;15.43;;;3.10;89.90;;;;;;5115968;28;20219;-85
2024/02/25 04:06:21;;;;;;;15.60;14.60;;;3.20;89.90;;;;;;5115604;28;20568;-85
2024/02/25 04:08:46;;;;;;;15.50;14.50;;;3.20;89.80;;;;;;5116906;28;20252;-85
2024/02/25 04:11:12;;;;;;;16.20;15.00;;;3.20;89.80;;;;;;5116853;28;20713;-85
2024/02/25 04:13:37;;;;;;;15.90;14.90;;;3.20;89.70;;;;;;5116695;28;20208;-85
2024/02/25 04:16:03;;;;;;;16.53;15.23;;;3.10;89.70;;;;;;5116453;28;20664;-85
2024/02/25 04:18:29;;;;;;;16.83;15.70;;;3.20;89.70;;;;;;5115261;28;20192;-85
2024/02/25 04:20:54;;;;;;;21.17;19.83;;;3.20;89.50;;;;;;5115446;28;20177;-85
2024/02/25 04:23:21;;;;;;;29.63;27.73;;;3.20;89.60;;;;;;5116809;27;20172;-85
2024/02/25 04:25:46;;;;;;;30.10;28.27;;;3.20;89.60;;;;;;5115253;28;20176;-85
2024/02/25 04:28:12;;;;;;;29.30;27.40;;;3.20;89.20;;;;;;5116840;28;20319;-85
2024/02/25 04:30:38;;;;;;;28.97;26.87;;;3.10;89.30;;;;;;5116314;28;20190;-85
2024/02/25 04:33:04;;;;;;;26.90;25.20;;;3.30;89.40;;;;;;5115095;28;20225;-85
2024/02/25 04:35:30;;;;;;;27.90;26.00;;;3.30;89.00;;;;;;5116224;28;20631;-84
2024/02/25 04:37:56;;;;;;;28.97;26.60;;;3.20;89.10;;;;;;5116278;27;20696;-85
2024/02/25 04:40:21;;;;;;;28.10;26.03;;;3.10;89.10;;;;;;5115055;28;20180;-85
2024/02/25 04:42:47;;;;;;;26.37;24.67;;;3.10;89.30;;;;;;5114973;28;20175;-85
2024/02/25 04:45:12;;;;;;;24.60;23.10;;;3.10;89.30;;;;;;5116031;28;20172;-84
2024/02/25 04:47:38;;;;;;;25.33;23.73;;;3.10;89.40;;;;;;5114688;28;20704;-85
2024/02/25 04:50:04;;;;;;;23.87;22.37;;;3.20;89.50;;;;;;5114733;28;20208;-85
2024/02/25 04:52:30;;;;;;;25.33;23.73;;;3.30;89.50;;;;;;5115734;27;20203;-85
2024/02/25 04:54:55;;;;;;;25.17;23.60;;;3.30;89.40;;;;;;5116108;28;20170;-85
2024/02/25 04:57:21;;;;;;;24.17;22.60;;;3.20;89.40;;;;;;5115779;28;20168;-85
2024/02/25 04:59:47;;;;;;;25.13;23.53;;;3.30;89.60;;;;;;5115740;28;20194;-85
2024/02/25 05:02:13;;;;;;;24.17;22.57;;;3.30;89.50;;;;;;5114574;28;20188;-85
2024/02/25 05:04:42;;;;;;;24.03;22.53;;;3.30;89.50;;;;;;5115863;28;20169;-85
2024/02/25 05:07:07;;;;;;;25.17;23.57;;;3.40;89.40;;;;;;5114730;28;20213;-85
2024/02/25 05:09:33;;;;;;;25.43;23.57;;;3.40;89.10;;;;;;5114361;28;20201;-85
2024/02/25 05:11:59;;;;;;;24.50;22.80;;;3.40;89.20;;;;;;5115753;28;20534;-85
2024/02/25 05:14:24;;;;;;;24.63;22.83;;;3.40;89.30;;;;;;5114291;28;20176;-85
2024/02/25 05:16:51;;;;;;;24.97;23.17;;;3.50;89.20;;;;;;5115453;28;20165;-85
2024/02/25 05:19:17;;;;;;;24.90;23.30;;;3.50;89.20;;;;;;5115524;28;20199;-85
2024/02/25 05:21:43;;;;;;;24.63;23.00;;;3.60;89.00;;;;;;5114121;28;20172;-84
2024/02/25 05:24:09;;;;;;;24.33;22.83;;;3.60;89.10;;;;;;5114279;28;20178;-84
2024/02/25 05:26:34;;;;;;;25.33;23.33;;;3.50;88.90;;;;;;5114152;28;20554;-85
2024/02/25 05:29:00;;;;;;;26.27;24.47;;;3.50;89.00;;;;;;5114712;28;20212;-85
2024/02/25 05:31:26;;;;;;;26.83;25.13;;;3.50;89.00;;;;;;5115390;28;20234;-85
2024/02/25 05:33:52;;;;;;;26.47;24.77;;;3.50;89.00;;;;;;5115197;28;20165;-85
2024/02/25 05:36:20;;;;;;;25.37;23.77;;;3.50;89.10;;;;;;5115514;28;20226;-85
2024/02/25 05:38:46;;;;;;;24.90;23.20;;;3.50;89.20;;;;;;5114948;28;20189;-85
2024/02/25 05:41:12;;;;;;;25.70;23.90;;;3.50;89.10;;;;;;5114867;28;20546;-86
2024/02/25 05:43:38;;;;;;;26.03;24.00;;;3.70;89.20;;;;;;5113817;28;20173;-85
2024/02/25 05:46:03;;;;;;;15.00;14.10;;;3.60;88.90;;;;;;5115560;28;20314;-85
2024/02/25 05:48:29;;;;;;;15.23;14.23;;;3.70;88.90;;;;;;5115134;28;20196;-85
2024/02/25 05:50:54;;;;;;;14.40;13.50;;;3.60;88.90;;;;;;5114801;28;20286;-85
2024/02/25 05:53:20;;;;;;;15.47;14.47;;;3.70;88.70;;;;;;5115144;28;20198;-85
2024/02/25 05:55:47;;;;;;;15.83;14.70;;;3.70;88.70;;;;;;5114807;28;20195;-85
2024/02/25 05:58:13;;;;;;;16.07;14.80;;;3.70;88.80;;;;;;5114576;28;20229;-85
2024/02/25 06:00:39;;;;;;;15.53;14.50;;;3.70;88.70;;;;;;5114695;28;20173;-85
2024/02/25 06:03:05;;;;;;;15.10;14.10;;;3.70;88.80;;;;;;5114400;28;20180;-85
2024/02/25 06:05:30;;;;;;;15.20;14.00;;;3.70;89.00;;;;;;5114431;28;20249;-84
2024/02/25 06:07:59;;;;;;;15.23;14.10;;;3.70;88.90;;;;;;5113180;28;20244;-85
2024/02/25 06:10:24;;;;;;;15.13;14.20;;;3.80;89.00;;;;;;5113232;28;20228;-85
2024/02/25 06:12:51;;;;;;;16.13;14.70;;;3.70;88.80;;;;;;5114538;27;20769;-85
2024/02/25 06:15:17;;;;;;;14.83;13.70;;;3.80;88.80;;;;;;5114452;28;20169;-84
2024/02/25 06:17:43;;;;;;;15.20;14.13;;;3.80;88.70;;;;;;5114408;28;20245;-85
2024/02/25 06:20:10;;;;;;;15.50;14.40;;;3.90;88.70;;;;;;5114204;28;20173;-85
2024/02/25 06:22:41;;;;;;;14.57;13.67;;;3.80;88.40;;;;;;5114236;28;20169;-85
2024/02/25 06:25:08;;;;;;;15.40;14.00;;;3.80;88.50;;;;;;5114426;28;20278;-85
2024/02/25 06:27:37;;;;;;;15.67;14.67;;;3.90;88.60;;;;;;5112697;28;20261;-85
2024/02/25 06:30:07;;;;;;;15.57;14.60;;;4.00;88.50;;;;;;5114258;28;20194;-85
2024/02/25 06:32:33;;;;;;;15.93;14.83;;;3.90;88.30;;;;;;5114135;28;20218;-85
2024/02/25 06:34:59;;;;;;;15.73;14.73;;;3.80;88.40;;;;;;5114113;28;20629;-85
2024/02/25 06:37:28;;;;;;;16.90;15.70;;;3.90;88.50;;;;;;5113973;28;20226;-85
2024/02/25 06:39:54;;;;;;;17.07;15.87;;;3.90;88.40;;;;;;5113253;28;20181;-85
2024/02/25 06:42:20;;;;;;;16.13;15.03;;;3.80;88.30;;;;;;5112736;28;20645;-85
2024/02/25 06:44:45;;;;;;;16.30;15.20;;;3.90;88.50;;;;;;5114103;28;20251;-85
2024/02/25 06:47:11;;;;;;;15.73;14.73;;;4.00;88.20;;;;;;5112763;28;20272;-85
2024/02/25 06:49:37;;;;;;;15.60;14.50;;;3.90;88.10;;;;;;5113877;28;20200;-85
2024/02/25 06:52:05;;;;;;;15.90;14.90;;;3.80;88.30;;;;;;5113699;28;20637;-87
2024/02/25 06:54:31;;;;;;;15.33;14.33;;;3.80;88.50;;;;;;5112724;28;20177;-85
2024/02/25 06:56:57;;;;;;;18.90;17.70;;;3.80;88.70;;;;;;5114122;28;20166;-85
2024/02/25 06:59:22;;;;;;;21.40;19.67;;;3.80;88.70;;;;;;5113740;28;20203;-85
2024/02/25 07:01:48;;;;;;;21.57;20.17;;;3.90;88.70;;;;;;5112492;28;20176;-85
2024/02/25 07:04:14;;;;;;;21.27;19.97;;;4.00;88.40;;;;;;5113855;28;20187;-85
2024/02/25 07:06:40;;;;;;;21.07;19.47;;;4.00;88.40;;;;;;5112274;28;20194;-87
2024/02/25 07:09:06;;;;;;;21.57;20.07;;;4.00;88.40;;;;;;5114003;28;20195;-85
2024/02/25 07:11:32;;;;;;;22.03;20.53;;;4.00;88.50;;;;;;5114338;28;20169;-85
2024/02/25 07:13:57;;;;;;;21.23;19.93;;;4.00;88.40;;;;;;5114100;28;20176;-86
2024/02/25 07:16:23;;;;;;;20.63;19.33;;;4.00;88.50;;;;;;5114200;28;20246;-86
2024/02/25 07:18:48;;;;;;;21.07;19.77;;;4.10;88.40;;;;;;5114183;28;20196;-85
2024/02/25 07:21:14;;;;;;;20.27;18.97;;;4.10;88.30;;;;;;5114275;28;20234;-85
2024/02/25 07:23:41;;;;;;;20.93;19.43;;;4.10;88.40;;;;;;5114244;28;20173;-85
2024/02/25 07:26:12;;;;;;;19.67;18.37;;;4.00;88.60;;;;;;5113058;28;20637;-85
2024/02/25 07:28:41;;;;;;;19.70;18.43;;;4.10;88.80;;;;;;5113006;28;20198;-85
2024/02/25 07:31:20;;;;;;;18.70;17.60;;;4.10;88.90;;;;;;5112817;28;20184;-86
2024/02/25 07:33:47;;;;;;;18.43;17.23;;;4.10;89.00;;;;;;5114326;28;20214;-85
2024/02/25 07:36:15;;;;;;;20.13;18.77;;;4.10;89.20;;;;;;5114058;28;20173;-85
2024/02/25 07:38:41;;;;;;;15.57;14.57;;;4.10;89.50;;;;;;5113953;28;20223;-86
2024/02/25 07:41:07;;;;;;;15.13;14.20;;;4.10;89.70;;;;;;5112794;28;20170;-86
2024/02/25 07:43:34;;;;;;;19.57;18.37;;;4.10;89.80;;;;;;5112891;28;20176;-85
2024/02/25 07:45:59;;;;;;;16.07;14.97;;;4.20;90.00;;;;;;5113019;28;20169;-86
2024/02/25 07:48:25;;;;;;;16.63;15.63;;;4.10;90.30;;;;;;5114073;28;20562;-86
2024/02/25 07:50:50;;;;;;;16.23;15.23;;;4.20;90.40;;;;;;5114742;28;20207;-86
2024/02/25 07:53:16;;;;;;;16.07;15.03;;;4.20;90.60;;;;;;5116531;28;20173;-86
2024/02/25 07:55:42;;;;;;;15.90;14.90;;;4.20;90.80;;;;;;5117994;28;20160;-86
2024/02/25 07:58:08;;;;;;;15.93;14.93;;;4.20;90.90;;;;;;5118193;28;20185;-85
2024/02/25 08:00:34;;;;;;;14.57;13.57;;;4.20;91.10;;;;;;5116613;28;20190;-85
2024/02/25 08:03:00;;;;;;;16.07;14.87;;;4.30;91.20;;;;;;5118240;28;20541;-85
2024/02/25 08:05:25;;;;;;;15.07;14.17;;;4.30;91.30;;;;;;5116383;28;20208;-85
2024/02/25 08:07:53;;;;;;;14.53;13.40;;;4.30;91.50;;;;;;5116778;28;20208;-86
2024/02/25 08:10:19;;;;;;;14.50;13.50;;;4.30;91.60;;;;;;5117977;28;20200;-85
2024/02/25 08:12:46;;;;;;;15.40;14.37;;;4.30;91.50;;;;;;5117471;28;20177;-85
2024/02/25 08:15:12;;;;;;;15.27;14.27;;;4.30;91.60;;;;;;5118386;28;20194;-87
2024/02/25 08:17:37;;;;;;;15.57;14.20;;;4.30;91.50;;;;;;5118801;27;20247;-87
2024/02/25 08:20:04;;;;;;;15.80;14.70;;;4.30;91.60;;;;;;5119542;28;20204;-85
2024/02/25 08:22:30;;;;;;;15.70;14.70;;;4.30;91.60;;;;;;5116432;28;20723;-85
2024/02/25 08:24:55;;;;;;;15.73;14.50;;;4.30;91.60;;;;;;5117432;28;20264;-85
2024/02/25 08:27:23;;;;;;;17.37;15.90;;;4.30;91.60;;;;;;5117218;28;20205;-85
2024/02/25 08:29:49;;;;;;;10.47;9.77;;;4.40;91.60;;;;;;5117652;28;20197;-85
2024/02/25 08:32:14;;;;;;;15.93;14.87;;;4.40;91.40;;;;;;5117474;27;20256;-85
2024/02/25 08:34:40;;;;;;;16.07;15.07;;;4.50;91.30;;;;;;5115655;28;20587;-85
2024/02/25 08:37:05;;;;;;;15.53;14.27;;;4.60;91.30;;;;;;5117011;28;20201;-86
2024/02/25 08:39:31;;;;;;;15.53;14.13;;;4.70;91.30;;;;;;5116612;28;20688;-85
2024/02/25 08:41:56;;;;;;;15.63;14.43;;;4.80;91.20;;;;;;5116982;28;20260;-85
2024/02/25 08:44:22;;;;;;;14.80;13.90;;;4.90;91.10;;;;;;5116510;28;20182;-85
2024/02/25 08:46:47;;;;;;;15.70;14.60;;;4.90;91.10;;;;;;5115187;28;20177;-86
2024/02/25 08:49:13;;;;;;;15.30;14.40;;;5.00;91.00;;;;;;5116942;28;20205;-85
2024/02/25 08:51:38;;;;;;;16.10;14.73;;;5.00;90.70;;;;;;5117026;28;20173;-85
2024/02/25 08:54:04;;;;;;;16.40;15.33;;;5.10;90.60;;;;;;5116440;27;20174;-85
2024/02/25 08:56:30;;;;;;;13.80;12.90;;;5.10;90.50;;;;;;5116290;28;20572;-85
2024/02/25 08:58:56;;;;;;;11.50;10.80;;;5.10;90.30;;;;;;5116036;28;20673;-85
2024/02/25 09:01:24;;;;;;;11.50;10.80;;;5.10;90.30;;;;;;5116354;28;20175;-85
2024/02/25 09:03:49;;;;;;;10.70;9.90;;;5.20;90.30;;;;;;5115621;28;20171;-86
2024/02/25 09:06:15;;;;;;;11.67;10.87;;;5.30;90.20;;;;;;5116520;28;20197;-86
2024/02/25 09:08:40;;;;;;;12.00;11.10;;;5.30;90.20;;;;;;5116755;28;20217;-87
2024/02/25 09:11:06;;;;;;;12.30;11.50;;;5.30;90.20;;;;;;5116817;28;20244;-85
2024/02/25 09:13:31;;;;;;;12.77;11.67;;;5.30;89.90;;;;;;5118402;27;20210;-86
2024/02/25 09:15:57;;;;;;;12.10;11.30;;;5.40;89.90;;;;;;5118424;28;20169;-86
2024/02/25 09:18:22;;;;;;;12.60;11.73;;;5.40;89.60;;;;;;5117906;28;20193;-86
2024/02/25 09:20:48;;;;;;;12.87;11.93;;;5.40;89.30;;;;;;5117975;28;20166;-86
2024/02/25 09:23:13;;;;;;;12.73;11.83;;;5.50;89.30;;;;;;5116910;28;20653;-86
2024/02/25 09:25:40;;;;;;;12.33;11.53;;;5.50;88.90;;;;;;5118894;28;20264;-86
2024/02/25 09:28:06;;;;;;;12.53;11.60;;;5.60;89.00;;;;;;5118740;28;20194;-86
2024/02/25 09:30:32;;;;;;;12.93;12.13;;;5.70;89.00;;;;;;5117086;28;20198;-86
2024/02/25 09:32:58;;;;;;;13.20;11.97;;;5.80;88.60;;;;;;5118956;28;20173;-86
2024/02/25 09:35:24;;;;;;;12.70;11.80;;;5.80;88.70;;;;;;5118861;28;20170;-86
2024/02/25 09:37:49;;;;;;;13.67;12.67;;;5.80;88.40;;;;;;5118106;28;20190;-88
2024/02/25 09:40:15;;;;;;;12.67;11.80;;;5.80;88.10;;;;;;5117392;28;20181;-87
2024/02/25 09:42:45;;;;;;;13.60;12.70;;;5.80;87.80;;;;;;5118559;28;20256;-86
2024/02/25 09:45:22;;;;;;;12.97;12.17;;;5.90;87.70;;;;;;5116823;28;20170;-86
2024/02/25 09:47:51;;;;;;;13.20;12.37;;;6.00;87.50;;;;;;5117241;28;20680;-86
2024/02/25 09:50:18;;;;;;;13.43;12.60;;;6.20;87.60;;;;;;5118415;28;20190;-86
2024/02/25 09:52:48;;;;;;;13.03;12.23;;;6.20;86.80;;;;;;5117227;28;20242;-86
2024/02/25 09:55:14;;;;;;;13.60;12.60;;;6.30;86.60;;;;;;5117160;28;20166;-86
2024/02/25 09:57:41;;;;;;;12.60;11.80;;;6.30;86.60;;;;;;5119486;28;20227;-86
2024/02/25 10:00:08;;;;;;;13.23;12.33;;;6.40;86.70;;;;;;5120212;28;20170;-86
2024/02/25 10:02:35;;;;;;;13.70;12.80;;;6.50;86.00;;;;;;5118150;28;20185;-87
2024/02/25 10:05:03;;;;;;;13.97;13.07;;;6.50;85.70;;;;;;5118711;28;20188;-86
2024/02/25 10:07:31;;;;;;;14.50;13.37;;;6.50;85.70;;;;;;5117479;28;20181;-86
2024/02/25 10:09:56;;;;;;;12.90;12.10;;;6.60;85.30;;;;;;5118181;28;20212;-86
2024/02/25 10:12:22;;;;;;;13.23;12.43;;;6.60;86.10;;;;;;5116852;28;20649;-86
2024/02/25 10:14:53;;;;;;;13.70;12.70;;;6.60;85.60;;;;;;5118433;28;20170;-88
2024/02/25 10:17:24;;;;;;;13.20;12.20;;;6.60;85.80;;;;;;5116226;28;20165;-86
2024/02/25 10:19:56;;;;;;;13.97;12.97;;;6.70;85.90;;;;;;5118520;28;20249;-86
2024/02/25 10:22:25;;;;;;;14.50;13.50;;;6.70;85.40;;;;;;5117972;28;20166;-85
2024/02/25 10:25:07;;;;;;;13.10;12.30;;;6.70;85.30;;;;;;5118624;28;20170;-86
2024/02/25 10:27:33;;;;;;;13.23;12.43;;;6.70;85.50;;;;;;5116837;28;20166;-86
2024/02/25 10:29:59;;;;;;;13.60;12.77;;;6.70;85.80;;;;;;5117714;28;20681;-87
2024/02/25 10:32:30;;;;;;;13.67;12.83;;;6.80;85.60;;;;;;5117880;28;20166;-86
2024/02/25 10:34:58;;;;;;;13.27;12.47;;;6.80;84.90;;;;;;5117658;28;20230;-87
2024/02/25 10:37:25;;;;;;;13.43;12.63;;;6.80;84.60;;;;;;5118745;28;20177;-87
2024/02/25 10:39:57;;;;;;;13.27;12.47;;;6.80;84.50;;;;;;5116652;28;20180;-86
2024/02/25 10:42:25;;;;;;;13.73;12.83;;;6.80;84.40;;;;;;5117513;28;20184;-86
2024/02/25 10:44:58;;;;;;;13.80;12.80;;;6.90;84.40;;;;;;5116823;28;20177;-87
2024/02/25 10:47:26;;;;;;;14.53;13.53;;;6.90;84.50;;;;;;5118647;28;20166;-86
2024/02/25 10:49:53;;;;;;;14.53;13.50;;;6.90;83.90;;;;;;5117014;28;20201;-86
2024/02/25 10:52:20;;;;;;;13.30;12.50;;;7.00;84.40;;;;;;5116675;28;20172;-87
2024/02/25 10:54:49;;;;;;;13.80;13.00;;;7.10;84.60;;;;;;5117858;28;20672;-86
2024/02/25 10:57:19;;;;;;;13.90;13.00;;;7.20;84.30;;;;;;5115664;28;20253;-87
2024/02/25 10:59:49;;;;;;;14.60;13.70;;;7.20;84.10;;;;;;5115694;28;20577;-86
2024/02/25 11:02:19;;;;;;;14.40;13.50;;;7.20;83.60;;;;;;5118068;28;20218;-86
2024/02/25 11:04:46;;;;;;;14.00;13.20;;;7.30;83.80;;;;;;5115172;28;20322;-86
2024/02/25 11:07:13;;;;;;;13.90;12.90;;;7.30;83.90;;;;;;5116432;28;20181;-87
2024/02/25 11:09:39;;;;;;;14.53;13.53;;;7.40;84.00;;;;;;5117349;28;20704;-86
2024/02/25 11:12:14;;;;;;;15.10;14.03;;;7.40;83.50;;;;;;5117431;28;20172;-86
2024/02/25 11:14:48;;;;;;;14.83;13.83;;;7.40;82.70;;;;;;5116354;28;20169;-86
2024/02/25 11:17:26;;;;;;;15.23;14.33;;;7.60;82.60;;;;;;5118252;28;20166;-86
2024/02/25 11:20:00;;;;;;;23.03;21.63;;;7.50;81.60;;;;;;5117987;28;20192;-86
2024/02/25 11:22:45;;;;;;;21.43;20.03;;;7.30;82.10;;;;;;5118810;28;20684;-85
2024/02/25 11:25:26;;;;;;;21.30;20.00;;;7.10;82.90;;;;;;5117668;28;20170;-86
2024/02/25 11:28:09;;;;;;;20.77;19.47;;;6.90;82.90;;;;;;5120194;28;20196;-88
2024/02/25 11:30:52;;;;;;;20.60;19.20;;;7.00;82.80;;;;;;5120776;28;20182;-86
2024/02/25 11:33:28;;;;;;;19.00;17.80;;;7.10;83.60;;;;;;5119457;27;20173;-85
2024/02/25 11:35:55;;;;;;;21.33;20.03;;;7.20;83.50;;;;;;5118671;28;20178;-86
2024/02/25 11:38:22;;;;;;;21.80;20.40;;;7.30;83.50;;;;;;5119732;28;20211;-86
2024/02/25 11:40:51;;;;;;;20.93;19.63;;;7.20;83.40;;;;;;5120310;28;20178;-86
2024/02/25 11:43:17;;;;;;;21.40;19.90;;;7.30;84.90;;;;;;5121056;28;20185;-86
2024/02/25 11:45:42;;;;;;;21.10;19.70;;;7.10;84.40;;;;;;5118538;28;20375;-86
2024/02/25 11:48:08;;;;;;;20.07;18.87;;;7.00;84.90;;;;;;5119695;28;20186;-85
2024/02/25 11:50:33;;;;;;;20.30;19.10;;;7.00;84.70;;;;;;5119756;27;20342;-86
2024/02/25 11:53:00;;;;;;;20.87;19.57;;;7.00;84.60;;;;;;5119015;27;20174;-85
2024/02/25 11:55:26;;;;;;;18.77;17.57;;;7.00;84.50;;;;;;5117263;28;20185;-86
2024/02/25 11:57:53;;;;;;;19.03;17.93;;;7.10;85.30;;;;;;5118484;28;20190;-86
2024/02/25 12:00:19;;;;;;;19.30;18.10;;;7.10;84.80;;;;;;5120265;28;20174;-86
2024/02/25 12:02:44;;;;;;;18.90;17.77;;;7.00;84.60;;;;;;5119779;28;20200;-86
2024/02/25 12:05:11;;;;;;;19.23;18.03;;;7.10;84.40;;;;;;5120047;28;20192;-86
2024/02/25 12:07:37;;;;;;;19.93;18.63;;;7.10;84.30;;;;;;5119310;28;20178;-86
2024/02/25 12:10:03;;;;;;;18.83;17.63;;;7.30;84.50;;;;;;5117691;28;20854;-86
2024/02/25 12:12:29;;;;;;;18.50;17.40;;;7.50;85.20;;;;;;5118432;28;20178;-86
2024/02/25 12:14:58;;;;;;;20.10;18.80;;;7.40;83.90;;;;;;5119852;28;20703;-86
2024/02/25 12:17:24;;;;;;;19.47;18.23;;;7.30;84.20;;;;;;5118269;28;20178;-85
2024/02/25 12:19:50;;;;;;;19.80;18.50;;;7.40;84.40;;;;;;5119313;28;20197;-86
2024/02/25 12:22:16;;;;;;;19.10;17.80;;;7.40;84.00;;;;;;5118132;28;20270;-87
2024/02/25 12:24:41;;;;;;;19.53;18.30;;;7.40;84.60;;;;;;5119510;28;20174;-86
2024/02/25 12:27:07;;;;;;;20.43;19.03;;;7.30;84.20;;;;;;5119004;28;20188;-86
2024/02/25 12:29:38;;;;;;;21.10;19.70;;;7.40;84.00;;;;;;5116869;28;20202;-86
2024/02/25 12:32:09;;;;;;;22.30;21.00;;;7.40;83.70;;;;;;5118929;28;20552;-87
2024/02/25 12:34:34;;;;;;;20.13;18.73;;;7.60;83.50;;;;;;5119256;28;20151;-86